Time;durP1;ratioP1;P1;durP2;ratioP2;P2;SDS_P1;SDS_P2;PMS_P1;PMS_P2;Temp;Humidity;BMP_temperature;BMP_pressure;BME280_temperature;BME280_humidity;BME280_pressure;Samples;Min_cycle;Max_cycle;Signal;HPM_P1;HPM_P2
2022/02/23 00:00:42;;;;;;;1.70;0.50;;;8.10;99.90;;;;;;4934935;29;20637;-74
2022/02/23 00:03:08;;;;;;;1.13;0.60;;;8.10;99.90;;;;;;4934116;29;20587;-73
2022/02/23 00:05:34;;;;;;;1.37;0.60;;;8.10;99.90;;;;;;4934848;29;20419;-73
2022/02/23 00:07:59;;;;;;;2.90;0.40;;;8.10;99.90;;;;;;4935113;29;20184;-73
2022/02/23 00:10:25;;;;;;;0.90;0.60;;;8.10;99.90;;;;;;4934258;29;20218;-73
2022/02/23 00:12:51;;;;;;;1.10;0.70;;;8.10;99.90;;;;;;4933949;29;20203;-74
2022/02/23 00:15:16;;;;;;;2.83;0.70;;;8.10;99.90;;;;;;4934884;29;20221;-74
2022/02/23 00:17:42;;;;;;;3.03;0.70;;;8.10;99.90;;;;;;4934684;29;20190;-72
2022/02/23 00:20:08;;;;;;;1.77;0.50;;;8.10;99.90;;;;;;4934508;29;20182;-74
2022/02/23 00:22:34;;;;;;;0.90;0.50;;;8.10;99.90;;;;;;4934329;29;20199;-74
2022/02/23 00:25:01;;;;;;;0.90;0.40;;;8.10;99.90;;;;;;4934094;29;20424;-74
2022/02/23 00:27:27;;;;;;;1.00;0.60;;;8.20;99.90;;;;;;4934436;29;20182;-73
2022/02/23 00:29:53;;;;;;;0.50;0.50;;;8.20;99.90;;;;;;4934530;29;20423;-73
2022/02/23 00:32:19;;;;;;;0.80;0.50;;;8.20;99.90;;;;;;4934296;29;20890;-73
2022/02/23 00:34:46;;;;;;;0.90;0.53;;;8.20;99.90;;;;;;4932928;29;20480;-73
2022/02/23 00:37:11;;;;;;;0.50;0.40;;;8.20;99.90;;;;;;4934714;29;20410;-74
2022/02/23 00:39:37;;;;;;;1.40;0.67;;;8.20;99.90;;;;;;4934657;29;20764;-73
2022/02/23 00:42:02;;;;;;;0.50;0.50;;;8.20;99.90;;;;;;4934140;29;20679;-73
2022/02/23 00:44:28;;;;;;;1.43;0.60;;;8.30;99.90;;;;;;4932788;29;20604;-74
2022/02/23 00:46:54;;;;;;;2.00;0.50;;;8.30;99.90;;;;;;4934058;29;20184;-75
2022/02/23 00:49:20;;;;;;;0.90;0.50;;;8.40;99.90;;;;;;4933989;29;20421;-72
2022/02/23 00:51:46;;;;;;;0.90;0.50;;;8.40;99.90;;;;;;4934071;29;20451;-73
2022/02/23 00:54:11;;;;;;;1.80;0.60;;;8.40;99.90;;;;;;4932455;29;20201;-73
2022/02/23 00:56:37;;;;;;;1.30;0.60;;;8.40;99.90;;;;;;4932585;29;20251;-74
2022/02/23 00:59:02;;;;;;;1.33;0.70;;;8.40;99.90;;;;;;4933892;29;20176;-74
2022/02/23 05:31:31;;;;;;;6.20;1.80;;;3.70;99.90;;;;;;5668594;23;20499;-70
2022/02/23 05:33:57;;;;;;;2.43;1.37;;;3.60;99.90;;;;;;4978471;28;20446;-72
2022/02/23 05:36:22;;;;;;;7.57;2.07;;;3.50;99.90;;;;;;4991115;28;20179;-72
2022/02/23 05:38:48;;;;;;;2.93;1.53;;;3.50;99.90;;;;;;4990277;28;20183;-71
2022/02/23 05:41:13;;;;;;;3.73;1.80;;;3.50;99.90;;;;;;4991295;28;20207;-73
2022/02/23 05:43:39;;;;;;;6.30;1.40;;;3.40;99.90;;;;;;4991366;28;20183;-72
2022/02/23 05:46:04;;;;;;;4.87;1.67;;;3.30;99.90;;;;;;4991128;28;20164;-73
2022/02/23 05:48:30;;;;;;;10.13;1.40;;;3.30;99.90;;;;;;4991828;28;20180;-71
2022/02/23 05:50:56;;;;;;;6.50;2.40;;;3.20;99.90;;;;;;4991375;28;20202;-73
2022/02/23 05:53:22;;;;;;;7.03;2.20;;;3.20;99.90;;;;;;4990865;28;20172;-72
2022/02/23 05:55:47;;;;;;;20.53;2.83;;;3.10;99.90;;;;;;4991392;28;21018;-71
2022/02/23 05:58:13;;;;;;;9.73;1.70;;;3.10;99.90;;;;;;4991117;28;20176;-71
2022/02/23 06:00:38;;;;;;;8.73;2.93;;;3.00;99.90;;;;;;4991287;28;20220;-70
2022/02/23 06:03:08;;;;;;;3.63;2.27;;;3.00;99.90;;;;;;4990738;28;20173;-71
2022/02/23 06:05:34;;;;;;;9.47;3.70;;;3.00;99.90;;;;;;4991351;28;20263;-73
2022/02/23 06:07:59;;;;;;;10.37;3.10;;;3.00;99.90;;;;;;4990998;28;20502;-72
2022/02/23 06:10:26;;;;;;;9.53;2.10;;;3.10;99.90;;;;;;4991227;28;20251;-72
2022/02/23 06:12:51;;;;;;;10.80;2.50;;;3.10;99.90;;;;;;4990912;28;20198;-72
2022/02/23 06:15:17;;;;;;;18.90;7.00;;;3.20;99.90;;;;;;4990882;28;20454;-72
2022/02/23 06:17:42;;;;;;;5.20;2.63;;;3.20;99.90;;;;;;4991058;28;20452;-72
2022/02/23 06:20:09;;;;;;;5.73;3.00;;;3.30;99.90;;;;;;4990720;28;20169;-72
2022/02/23 06:22:34;;;;;;;6.93;2.10;;;3.30;99.90;;;;;;4991031;28;20275;-73
2022/02/23 06:25:00;;;;;;;3.03;2.30;;;3.40;99.90;;;;;;4990941;28;20789;-75
2022/02/23 06:27:25;;;;;;;8.20;1.80;;;3.40;99.90;;;;;;4990854;28;20269;-75
2022/02/23 06:29:51;;;;;;;4.23;2.30;;;3.40;99.90;;;;;;4990942;28;20187;-75
2022/02/23 06:32:16;;;;;;;6.23;2.70;;;3.40;99.90;;;;;;4956049;28;1022771;-75
2022/02/23 06:34:42;;;;;;;3.27;2.27;;;3.40;99.90;;;;;;4991564;28;20862;-74
2022/02/23 06:37:08;;;;;;;10.90;1.83;;;3.40;99.90;;;;;;4989195;28;20180;-76
2022/02/23 06:39:40;;;;;;;4.30;1.80;;;3.40;99.90;;;;;;4967428;28;20279;-74
2022/02/23 06:42:06;;;;;;;5.67;2.20;;;3.40;99.90;;;;;;4967248;28;20201;-75
2022/02/23 06:44:32;;;;;;;7.73;1.90;;;3.40;99.90;;;;;;4972480;28;20762;-74
2022/02/23 06:47:00;;;;;;;10.77;2.00;;;3.30;99.90;;;;;;4975520;28;20425;-76
2022/02/23 06:49:26;;;;;;;10.03;2.13;;;3.30;99.90;;;;;;4974635;28;20440;-75
2022/02/23 06:51:56;;;;;;;7.90;3.43;;;3.30;99.90;;;;;;4975650;28;20447;-76
2022/02/23 06:54:22;;;;;;;4.40;2.50;;;3.30;99.90;;;;;;4975468;28;20477;-75
2022/02/23 06:56:48;;;;;;;7.43;2.47;;;3.50;99.90;;;;;;4970915;28;20425;-74
2022/02/23 06:59:13;;;;;;;4.63;1.60;;;3.50;99.90;;;;;;4975192;28;20221;-75
2022/02/23 07:01:42;;;;;;;10.23;2.23;;;3.50;99.90;;;;;;4975388;28;20287;-74
2022/02/23 07:04:07;;;;;;;6.43;2.07;;;3.60;99.90;;;;;;4975730;28;20233;-74
2022/02/23 07:06:33;;;;;;;5.93;2.50;;;3.70;99.90;;;;;;4975369;28;20499;-74
2022/02/23 07:09:00;;;;;;;4.93;2.30;;;3.70;99.90;;;;;;4975329;28;20188;-76
2022/02/23 07:11:26;;;;;;;6.73;2.20;;;3.90;99.90;;;;;;4975452;28;20724;-74
2022/02/23 07:13:52;;;;;;;8.17;2.00;;;4.00;99.90;;;;;;4975123;28;20429;-74
2022/02/23 07:16:20;;;;;;;6.07;2.30;;;4.10;99.90;;;;;;4975105;28;20853;-72
2022/02/23 07:18:46;;;;;;;3.33;1.50;;;4.20;99.90;;;;;;4975440;28;20421;-74
2022/02/23 07:21:12;;;;;;;7.63;1.80;;;4.40;99.90;;;;;;4974855;28;20804;-74
2022/02/23 07:23:38;;;;;;;3.83;1.87;;;4.50;99.90;;;;;;4975136;28;20205;-75
2022/02/23 07:26:04;;;;;;;5.37;1.90;;;4.60;99.90;;;;;;4974764;28;20954;-75
2022/02/23 07:28:29;;;;;;;1.67;1.17;;;4.90;99.90;;;;;;4975267;28;20200;-75
2022/02/23 07:30:55;;;;;;;4.20;1.30;;;6.30;99.90;;;;;;4974995;28;20243;-74
2022/02/23 07:33:21;;;;;;;3.10;1.77;;;8.10;99.90;;;;;;4975008;28;20536;-75
2022/02/23 07:35:46;;;;;;;1.33;1.17;;;9.70;99.90;;;;;;4973675;28;20212;-75
2022/02/23 07:38:12;;;;;;;7.47;1.40;;;11.00;99.90;;;;;;4974599;28;20176;-76
2022/02/23 07:40:39;;;;;;;3.47;1.30;;;12.00;99.90;;;;;;4975264;28;20812;-74
2022/02/23 07:43:06;;;;;;;8.53;1.70;;;12.80;99.90;;;;;;4974563;28;20447;-76
2022/02/23 07:45:32;;;;;;;6.73;0.97;;;13.60;99.90;;;;;;4975055;28;20424;-75
2022/02/23 07:47:59;;;;;;;9.43;2.07;;;14.20;99.90;;;;;;4974475;28;20426;-75
2022/02/23 07:50:25;;;;;;;4.43;1.40;;;14.80;99.90;;;;;;4976068;28;20439;-76
2022/02/23 07:52:50;;;;;;;4.40;1.60;;;15.70;99.90;;;;;;4975959;28;20470;-75
2022/02/23 07:55:17;;;;;;;3.30;1.90;;;15.90;99.90;;;;;;4974665;28;20208;-75
2022/02/23 07:57:43;;;;;;;4.63;2.27;;;16.00;99.90;;;;;;4974727;28;20184;-76
2022/02/23 08:00:10;;;;;;;6.13;2.50;;;15.90;99.90;;;;;;4975513;28;20419;-75
2022/02/23 08:02:36;;;;;;;6.97;2.23;;;15.90;99.90;;;;;;4975890;28;20431;-75
2022/02/23 08:05:02;;;;;;;5.83;1.87;;;15.40;99.90;;;;;;4975214;28;20416;-76
2022/02/23 08:07:28;;;;;;;12.83;2.30;;;15.20;99.90;;;;;;4973916;28;20501;-76
2022/02/23 08:09:54;;;;;;;5.43;2.20;;;15.00;99.90;;;;;;4974492;28;20502;-75
2022/02/23 08:12:20;;;;;;;4.10;1.67;;;14.50;99.90;;;;;;4973432;28;20562;-76
2022/02/23 08:14:45;;;;;;;4.17;2.37;;;14.20;99.90;;;;;;4974436;28;21038;-76
2022/02/23 08:19:55;;;;;;;5.53;2.47;;;13.80;99.90;;;;;;4974380;28;20183;-75
2022/02/23 08:22:27;;;;;;;7.97;1.67;;;13.70;99.90;;;;;;4974174;28;20436;-72
2022/02/23 08:24:54;;;;;;;9.90;2.67;;;13.70;99.90;;;;;;4974207;28;20222;-72
2022/02/23 08:27:20;;;;;;;6.70;2.77;;;13.50;99.90;;;;;;4973448;28;20473;-72
2022/02/23 08:29:47;;;;;;;10.00;2.80;;;13.40;99.90;;;;;;4974191;28;20419;-73
2022/02/23 08:32:15;;;;;;;5.90;2.60;;;13.30;99.90;;;;;;4973933;28;20425;-73
2022/02/23 08:34:43;;;;;;;4.40;2.30;;;13.40;99.90;;;;;;4973924;28;20451;-73
2022/02/23 08:37:09;;;;;;;6.10;2.10;;;13.50;99.90;;;;;;4972006;28;20415;-72
2022/02/23 08:39:36;;;;;;;8.63;2.90;;;13.70;99.90;;;;;;4973872;28;20501;-73
2022/02/23 08:42:03;;;;;;;5.63;2.47;;;13.80;99.90;;;;;;4973772;28;20442;-74
2022/02/23 08:44:28;;;;;;;4.13;2.27;;;13.70;99.90;;;;;;4973533;28;20416;-73
2022/02/23 08:46:55;;;;;;;4.77;2.13;;;13.70;99.90;;;;;;4973533;28;20428;-74
2022/02/23 08:49:21;;;;;;;15.57;2.70;;;13.70;99.90;;;;;;4972875;28;20191;-72
2022/02/23 08:51:48;;;;;;;3.90;2.73;;;13.70;99.90;;;;;;4973725;28;20807;-74
2022/02/23 08:54:18;;;;;;;4.70;2.70;;;13.80;99.90;;;;;;4973306;28;20452;-73
2022/02/23 08:56:44;;;;;;;4.97;1.87;;;13.80;99.90;;;;;;4973326;28;20439;-73
2022/02/23 08:59:10;;;;;;;5.53;2.73;;;13.90;99.90;;;;;;4973220;28;20551;-73
2022/02/23 09:01:36;;;;;;;4.50;2.13;;;14.10;99.90;;;;;;4973384;28;20431;-72
2022/02/23 09:04:03;;;;;;;5.37;1.73;;;14.30;99.90;;;;;;4973143;28;20958;-72
2022/02/23 09:06:33;;;;;;;4.97;2.47;;;14.00;99.90;;;;;;4973146;28;20462;-72
2022/02/23 09:08:59;;;;;;;4.87;2.07;;;13.70;99.90;;;;;;4973248;28;20519;-72
2022/02/23 09:11:25;;;;;;;3.37;1.80;;;14.30;99.90;;;;;;4972718;28;20431;-73
2022/02/23 09:13:51;;;;;;;4.50;1.43;;;14.80;99.90;;;;;;4972678;28;20419;-73
2022/02/23 09:16:17;;;;;;;4.60;1.50;;;14.20;99.90;;;;;;4972954;28;20417;-72
2022/02/23 09:18:43;;;;;;;2.30;2.10;;;14.00;99.90;;;;;;4972913;28;20566;-72
2022/02/23 09:21:08;;;;;;;7.30;2.10;;;13.70;99.90;;;;;;4972875;28;20286;-72
2022/02/23 09:23:34;;;;;;;8.07;2.10;;;13.90;99.90;;;;;;4972836;28;20172;-73
2022/02/23 09:26:00;;;;;;;3.67;1.80;;;14.30;99.90;;;;;;4972871;28;20640;-71
2022/02/23 09:28:25;;;;;;;6.53;1.50;;;14.70;99.90;;;;;;4972756;28;20235;-73
2022/02/23 09:30:51;;;;;;;7.80;1.20;;;14.80;99.90;;;;;;4972854;28;20935;-72
2022/02/23 09:33:16;;;;;;;6.80;1.70;;;15.00;99.90;;;;;;4972617;28;20199;-72
2022/02/23 09:35:45;;;;;;;3.07;1.43;;;15.30;99.90;;;;;;4972735;28;20212;-73
2022/02/23 09:38:12;;;;;;;5.80;1.33;;;15.00;99.90;;;;;;4972637;28;20175;-72
2022/02/23 09:40:41;;;;;;;5.67;1.50;;;14.20;99.90;;;;;;4972592;28;20828;-74
2022/02/23 09:43:07;;;;;;;2.40;1.00;;;13.60;99.90;;;;;;4972433;28;20435;-73
2022/02/23 09:45:36;;;;;;;5.50;1.70;;;13.30;99.90;;;;;;4972780;28;20480;-73
2022/02/23 09:48:01;;;;;;;5.43;1.90;;;13.20;99.90;;;;;;4972496;28;20427;-72
2022/02/23 09:50:27;;;;;;;3.13;1.60;;;13.10;99.90;;;;;;4972675;28;20416;-72
2022/02/23 09:52:53;;;;;;;4.97;1.53;;;13.20;99.90;;;;;;4972362;28;20677;-74
2022/02/23 09:55:20;;;;;;;9.63;1.57;;;13.20;99.90;;;;;;4972782;28;20208;-72
2022/02/23 09:57:47;;;;;;;5.03;2.47;;;13.20;99.90;;;;;;4970905;28;20175;-72
2022/02/23 10:00:13;;;;;;;7.27;1.40;;;13.10;99.90;;;;;;4972315;28;20408;-72
2022/02/23 10:02:39;;;;;;;2.83;1.13;;;12.30;99.90;;;;;;4972383;28;20427;-72
2022/02/23 10:05:06;;;;;;;9.90;1.20;;;11.80;99.90;;;;;;4972320;28;20419;-72
2022/02/23 10:07:38;;;;;;;7.50;2.20;;;11.70;99.90;;;;;;4972272;28;20422;-72
2022/02/23 10:10:07;;;;;;;4.33;1.10;;;11.70;99.90;;;;;;4972190;28;20426;-72
2022/02/23 10:12:34;;;;;;;7.70;1.50;;;11.60;99.90;;;;;;4972249;28;20443;-71
2022/02/23 10:15:12;;;;;;;3.13;1.13;;;11.60;99.90;;;;;;4972128;28;20470;-72
2022/02/23 10:17:47;;;;;;;2.23;1.07;;;12.10;99.90;;;;;;4972211;28;20421;-72
2022/02/23 10:20:33;;;;;;;8.70;1.83;;;12.60;99.90;;;;;;4975597;28;20438;-73
2022/02/23 10:23:03;;;;;;;2.70;1.00;;;12.80;99.90;;;;;;4976209;28;20425;-71
2022/02/23 10:25:31;;;;;;;4.53;1.10;;;12.70;99.90;;;;;;4976203;28;20499;-72
2022/02/23 10:28:08;;;;;;;5.50;1.70;;;12.60;99.90;;;;;;4976222;28;20575;-72
2022/02/23 10:30:35;;;;;;;5.07;1.40;;;12.60;99.90;;;;;;4976019;28;20498;-72
2022/02/23 10:33:20;;;;;;;6.03;1.97;;;12.60;99.90;;;;;;4975625;28;20427;-73
2022/02/23 10:35:50;;;;;;;5.97;1.83;;;12.70;99.90;;;;;;4975537;28;20501;-72
2022/02/23 10:38:24;;;;;;;6.77;2.23;;;12.90;99.90;;;;;;4975706;28;20443;-72
2022/02/23 10:40:49;;;;;;;3.57;1.93;;;13.60;99.90;;;;;;4975815;28;20411;-72
2022/02/23 10:43:31;;;;;;;6.13;1.33;;;13.80;99.90;;;;;;4975454;28;20425;-74
2022/02/23 10:46:03;;;;;;;11.47;1.73;;;13.60;99.90;;;;;;4975057;28;20213;-72
2022/02/23 10:48:34;;;;;;;3.80;1.80;;;13.60;99.90;;;;;;4975657;28;20430;-74
2022/02/23 10:50:59;;;;;;;6.77;1.90;;;13.90;99.90;;;;;;4975565;28;20443;-73
2022/02/23 10:53:27;;;;;;;10.30;1.53;;;13.60;99.90;;;;;;4974998;28;20415;-74
2022/02/23 10:55:53;;;;;;;5.80;1.43;;;13.40;99.90;;;;;;4974208;28;21000;-72
2022/02/23 10:58:19;;;;;;;6.50;1.40;;;13.70;99.90;;;;;;4975519;28;20482;-72
2022/02/23 11:00:49;;;;;;;8.30;1.70;;;14.30;99.90;;;;;;4975496;28;20863;-73
2022/02/23 11:03:18;;;;;;;3.03;1.67;;;14.30;99.90;;;;;;4973798;28;20188;-72
2022/02/23 11:05:46;;;;;;;7.57;2.00;;;14.80;99.90;;;;;;4974113;28;20446;-73
2022/02/23 11:08:14;;;;;;;8.67;2.47;;;15.20;99.90;;;;;;4974306;28;20419;-75
2022/02/23 11:10:42;;;;;;;10.80;1.90;;;15.50;99.90;;;;;;4974189;28;20923;-72
2022/02/23 11:13:15;;;;;;;9.10;1.13;;;15.50;99.90;;;;;;4973916;28;20502;-73
2022/02/23 11:15:46;;;;;;;8.13;2.40;;;15.70;99.90;;;;;;4974543;28;20596;-72
2022/02/23 11:18:16;;;;;;;3.33;1.10;;;15.90;99.90;;;;;;4975197;28;20415;-72
2022/02/23 11:20:48;;;;;;;5.23;1.57;;;16.00;99.90;;;;;;4975313;28;20512;-75
2022/02/23 11:23:17;;;;;;;6.30;1.80;;;16.10;99.90;;;;;;4973700;28;20560;-74
2022/02/23 11:25:46;;;;;;;4.67;1.63;;;15.60;99.90;;;;;;4975532;28;20490;-75
2022/02/23 11:28:19;;;;;;;3.53;1.50;;;15.30;99.90;;;;;;4973388;28;20428;-74
2022/02/23 11:30:45;;;;;;;6.30;1.70;;;14.80;99.90;;;;;;4973758;28;20411;-74
2022/02/23 11:33:11;;;;;;;6.63;1.63;;;14.00;99.90;;;;;;4974824;28;20424;-75
2022/02/23 11:35:40;;;;;;;5.40;2.03;;;14.00;99.90;;;;;;4975307;28;20944;-74
2022/02/23 11:38:07;;;;;;;11.20;2.10;;;14.30;99.90;;;;;;4974813;28;20311;-74
2022/02/23 11:40:49;;;;;;;9.73;1.63;;;14.70;99.90;;;;;;4975145;28;20416;-74
2022/02/23 11:43:25;;;;;;;4.90;1.57;;;14.50;99.90;;;;;;4974538;28;20872;-74
2022/02/23 11:45:59;;;;;;;6.63;2.03;;;13.70;99.90;;;;;;4975086;28;20904;-74
2022/02/23 11:48:25;;;;;;;8.67;1.67;;;13.70;99.90;;;;;;4974832;28;20423;-73
2022/02/23 11:51:04;;;;;;;6.10;2.17;;;13.70;99.90;;;;;;4974181;28;20501;-74
2022/02/23 11:53:40;;;;;;;3.70;1.37;;;14.20;99.90;;;;;;4974940;28;20430;-74
2022/02/23 11:56:14;;;;;;;4.63;1.50;;;14.10;99.90;;;;;;4973560;28;20474;-72
2022/02/23 11:58:43;;;;;;;8.63;1.97;;;14.30;99.90;;;;;;4974647;28;20842;-73
2022/02/23 12:01:08;;;;;;;4.40;1.50;;;14.00;99.90;;;;;;4972870;28;20447;-72
2022/02/23 12:03:34;;;;;;;7.50;2.00;;;13.70;99.90;;;;;;4975091;28;20474;-72
2022/02/23 12:06:04;;;;;;;6.00;1.80;;;13.30;99.90;;;;;;4974929;28;20677;-73
2022/02/23 12:08:33;;;;;;;12.80;2.00;;;13.00;99.90;;;;;;4975311;28;20184;-71
2022/02/23 12:10:58;;;;;;;6.43;1.53;;;13.10;99.90;;;;;;4974596;28;20434;-71
2022/02/23 12:13:51;;;;;;;5.60;1.70;;;13.00;99.90;;;;;;4974740;28;20985;-72
2022/02/23 12:16:35;;;;;;;14.83;1.87;;;12.70;99.90;;;;;;4973220;28;20222;-72
2022/02/23 12:19:04;;;;;;;5.80;1.30;;;12.90;99.90;;;;;;4973380;28;20411;-73
2022/02/23 12:21:37;;;;;;;4.63;1.77;;;13.20;99.90;;;;;;4973414;28;20435;-73
2022/02/23 12:24:04;;;;;;;4.17;1.27;;;13.30;99.90;;;;;;4972996;28;20420;-72
2022/02/23 12:26:36;;;;;;;3.60;0.90;;;13.20;99.90;;;;;;4973033;28;20502;-73
2022/02/23 12:29:05;;;;;;;3.07;1.27;;;13.00;99.90;;;;;;4973036;28;20442;-73
2022/02/23 12:31:32;;;;;;;6.43;1.30;;;12.60;99.90;;;;;;4973148;28;20976;-73
2022/02/23 12:34:10;;;;;;;9.03;1.97;;;12.50;99.90;;;;;;4973064;28;20418;-72
2022/02/23 12:36:48;;;;;;;2.70;0.87;;;12.30;99.90;;;;;;4973713;28;20752;-73
2022/02/23 12:39:23;;;;;;;2.30;1.27;;;12.30;99.90;;;;;;4973594;28;20411;-72
2022/02/23 12:41:52;;;;;;;1.37;1.00;;;12.20;99.90;;;;;;4973402;28;20864;-73
2022/02/23 12:44:23;;;;;;;1.60;1.30;;;12.10;99.90;;;;;;4973215;28;20435;-73
2022/02/23 12:46:53;;;;;;;1.03;1.00;;;12.10;99.90;;;;;;4973813;28;20416;-73
2022/02/23 12:49:21;;;;;;;5.63;1.50;;;12.40;99.90;;;;;;4973466;28;20415;-73
2022/02/23 12:51:48;;;;;;;3.03;0.97;;;12.60;99.90;;;;;;4973858;28;20447;-73
2022/02/23 12:54:16;;;;;;;2.43;1.10;;;13.00;99.90;;;;;;4973125;28;20827;-73
2022/02/23 12:56:44;;;;;;;2.87;1.60;;;13.40;99.90;;;;;;4973842;28;20419;-73
2022/02/23 12:59:17;;;;;;;2.60;0.97;;;13.60;99.90;;;;;;4973214;28;20415;-73
2022/02/23 13:01:45;;;;;;;3.40;1.03;;;13.80;99.90;;;;;;4973453;28;20937;-73
2022/02/23 13:04:14;;;;;;;2.33;1.37;;;13.80;99.90;;;;;;4973172;28;20886;-73
2022/02/23 13:06:43;;;;;;;4.90;0.97;;;13.90;99.90;;;;;;4972525;28;20482;-73
2022/02/23 13:09:12;;;;;;;2.73;0.73;;;13.60;99.90;;;;;;4976181;28;20812;-73
2022/02/23 13:11:46;;;;;;;2.03;0.80;;;13.60;99.90;;;;;;4973126;28;20446;-73
2022/02/23 13:14:20;;;;;;;5.53;1.07;;;13.60;99.90;;;;;;4972839;28;20463;-73
2022/02/23 13:16:52;;;;;;;2.50;0.90;;;13.50;99.90;;;;;;4973242;28;20420;-72
2022/02/23 13:19:23;;;;;;;6.10;1.00;;;13.60;99.90;;;;;;4973062;28;20654;-73
2022/02/23 13:21:52;;;;;;;5.60;1.50;;;13.70;99.90;;;;;;4971723;28;20428;-73
2022/02/23 13:24:30;;;;;;;4.30;0.77;;;13.70;99.90;;;;;;4972807;28;20506;-73
2022/02/23 13:26:56;;;;;;;11.00;1.33;;;13.80;99.90;;;;;;4972903;28;20791;-73
2022/02/23 13:29:26;;;;;;;6.97;1.50;;;13.80;99.90;;;;;;4972847;28;20974;-72
2022/02/23 13:32:02;;;;;;;3.10;1.10;;;13.60;99.90;;;;;;4972924;28;20466;-73
2022/02/23 13:34:30;;;;;;;3.83;1.30;;;13.50;99.90;;;;;;4972702;28;21041;-72
2022/02/23 13:37:19;;;;;;;6.50;1.17;;;13.50;99.90;;;;;;4973010;28;20435;-73
2022/02/23 13:40:12;;;;;;;8.27;1.50;;;13.50;99.90;;;;;;4969352;28;20426;-73
2022/02/23 13:42:39;;;;;;;4.00;1.50;;;13.30;99.90;;;;;;4972757;28;20427;-73
2022/02/23 13:45:11;;;;;;;7.43;1.40;;;13.10;99.90;;;;;;4972152;28;20955;-72
2022/02/23 13:47:38;;;;;;;3.57;1.23;;;12.90;99.90;;;;;;4972514;28;20570;-72
2022/02/23 13:50:14;;;;;;;8.40;1.30;;;12.90;99.90;;;;;;4972455;28;20820;-72
2022/02/23 13:52:47;;;;;;;4.03;1.23;;;13.10;99.90;;;;;;4971627;28;20444;-73
2022/02/23 13:55:14;;;;;;;5.53;1.57;;;13.20;99.90;;;;;;4971651;28;21024;-73
2022/02/23 13:57:48;;;;;;;3.03;1.03;;;13.30;99.90;;;;;;4972097;28;20955;-73
2022/02/23 14:00:26;;;;;;;3.83;1.30;;;13.30;99.90;;;;;;4971799;28;20428;-73
2022/02/23 14:03:09;;;;;;;3.50;1.07;;;13.20;99.90;;;;;;4972514;28;20808;-72
2022/02/23 14:05:35;;;;;;;5.60;1.23;;;13.30;99.90;;;;;;4972362;28;20416;-72
2022/02/23 14:08:04;;;;;;;4.60;1.10;;;13.20;99.90;;;;;;4972263;28;20503;-74
2022/02/23 14:10:35;;;;;;;4.80;1.10;;;13.00;99.90;;;;;;4972415;28;20510;-73
2022/02/23 14:13:05;;;;;;;1.30;0.97;;;12.80;99.90;;;;;;4971830;28;20408;-73
2022/02/23 14:15:33;;;;;;;4.60;1.10;;;12.70;99.90;;;;;;4972171;28;20960;-73
2022/02/23 14:18:27;;;;;;;2.90;1.00;;;12.70;99.90;;;;;;4972114;28;20415;-72
2022/02/23 14:20:58;;;;;;;1.17;0.87;;;12.60;99.90;;;;;;4972352;28;20431;-73
2022/02/23 14:23:27;;;;;;;6.10;0.90;;;12.50;99.90;;;;;;4972078;28;20507;-74
2022/02/23 14:25:59;;;;;;;6.40;1.17;;;12.40;99.90;;;;;;4972449;28;20852;-73
2022/02/23 14:28:26;;;;;;;5.80;0.90;;;12.20;99.90;;;;;;4972212;28;20447;-73
2022/02/23 14:30:51;;;;;;;1.90;1.13;;;12.00;99.90;;;;;;4972012;28;20416;-73
2022/02/23 14:33:30;;;;;;;2.67;0.97;;;12.00;99.90;;;;;;4971454;28;20934;-73
2022/02/23 14:35:56;;;;;;;2.30;0.90;;;12.00;99.90;;;;;;4972216;28;20266;-73
2022/02/23 14:38:22;;;;;;;7.13;1.23;;;12.20;99.90;;;;;;4972014;28;20419;-73
2022/02/23 14:40:48;;;;;;;1.60;0.90;;;12.30;99.90;;;;;;4972160;28;20411;-73
2022/02/23 14:43:13;;;;;;;1.90;0.90;;;12.30;99.90;;;;;;4971408;28;20178;-74
2022/02/23 14:45:39;;;;;;;1.20;0.87;;;12.40;99.90;;;;;;4970426;28;20191;-73
2022/02/23 14:48:04;;;;;;;4.43;0.97;;;12.40;99.90;;;;;;4971877;28;20183;-72
2022/02/23 14:50:30;;;;;;;8.07;1.33;;;12.40;99.90;;;;;;4972422;28;20176;-73
2022/02/23 14:52:55;;;;;;;3.97;1.33;;;12.40;99.90;;;;;;4971863;28;20210;-73
2022/02/23 14:55:23;;;;;;;5.60;1.70;;;12.40;99.90;;;;;;4971659;28;20265;-73
2022/02/23 14:57:49;;;;;;;7.87;2.10;;;12.40;99.90;;;;;;4972089;28;20172;-72
2022/02/23 15:00:19;;;;;;;2.60;1.47;;;12.30;99.90;;;;;;4971874;28;20421;-74
2022/02/23 15:02:46;;;;;;;3.60;1.20;;;12.40;99.90;;;;;;4971913;28;20199;-72
2022/02/23 15:05:12;;;;;;;6.37;1.30;;;12.40;99.90;;;;;;4973486;28;20422;-73
2022/02/23 15:07:40;;;;;;;7.27;0.90;;;12.30;99.90;;;;;;4975735;28;20419;-73
2022/02/23 15:10:07;;;;;;;2.90;1.47;;;12.30;99.90;;;;;;4973868;28;20430;-73
2022/02/23 15:12:33;;;;;;;2.97;1.13;;;12.20;99.90;;;;;;4975645;28;20435;-73
2022/02/23 15:14:59;;;;;;;1.67;0.80;;;12.20;99.90;;;;;;4975214;28;20485;-72
2022/02/23 15:17:24;;;;;;;3.40;1.03;;;12.20;99.90;;;;;;4973810;28;20266;-73
2022/02/23 15:19:50;;;;;;;3.00;0.87;;;12.10;99.90;;;;;;4975276;28;20176;-73
2022/02/23 15:22:15;;;;;;;3.90;1.00;;;12.00;99.90;;;;;;4975475;28;20707;-72
2022/02/23 15:24:41;;;;;;;3.40;1.27;;;11.90;99.90;;;;;;4974753;28;20243;-73
2022/02/23 15:27:07;;;;;;;6.77;1.30;;;11.90;99.90;;;;;;4975111;28;20553;-72
2022/02/23 15:29:33;;;;;;;2.40;1.40;;;11.90;99.90;;;;;;4974981;28;20180;-73
2022/02/23 15:31:59;;;;;;;3.70;1.40;;;11.90;99.90;;;;;;4974895;28;20640;-73
2022/02/23 15:34:25;;;;;;;5.13;1.47;;;11.90;99.90;;;;;;4974720;28;20470;-74
2022/02/23 15:36:51;;;;;;;4.93;1.03;;;11.90;99.90;;;;;;4975038;28;20187;-73
2022/02/23 15:39:17;;;;;;;5.70;1.53;;;11.90;99.90;;;;;;4974899;28;20179;-73
2022/02/23 15:41:43;;;;;;;3.77;1.40;;;11.90;99.90;;;;;;4975101;28;20207;-73
2022/02/23 15:44:09;;;;;;;2.80;1.17;;;11.80;99.90;;;;;;4973126;28;20420;-73
2022/02/23 15:46:38;;;;;;;7.23;1.20;;;11.90;99.90;;;;;;4975159;28;20502;-72
2022/02/23 15:49:06;;;;;;;4.17;1.10;;;11.90;99.90;;;;;;4974623;28;20550;-73
2022/02/23 15:51:32;;;;;;;10.37;1.70;;;11.80;99.90;;;;;;4974966;28;20468;-73
2022/02/23 15:53:58;;;;;;;2.30;0.97;;;11.70;99.90;;;;;;4974499;28;20932;-73
2022/02/23 15:56:23;;;;;;;8.00;1.17;;;11.70;99.90;;;;;;4974656;28;20422;-73
2022/02/23 15:58:49;;;;;;;6.07;1.47;;;11.70;99.90;;;;;;4970301;28;21278;-73
2022/02/23 16:01:15;;;;;;;1.73;0.90;;;11.60;99.90;;;;;;4974440;28;20196;-73
2022/02/23 16:03:41;;;;;;;5.93;1.53;;;11.60;99.90;;;;;;4974430;28;20176;-73
2022/02/23 16:06:07;;;;;;;6.03;1.37;;;11.60;99.90;;;;;;4974026;28;20555;-72
2022/02/23 16:08:32;;;;;;;3.83;1.30;;;11.60;99.90;;;;;;4970330;28;20442;-72
2022/02/23 16:10:59;;;;;;;4.90;1.37;;;11.50;99.90;;;;;;4974494;28;20196;-72
2022/02/23 16:13:25;;;;;;;5.57;1.63;;;11.50;99.90;;;;;;4973190;28;20624;-73
2022/02/23 16:15:50;;;;;;;4.10;1.00;;;11.40;99.90;;;;;;4973520;28;20955;-73
2022/02/23 16:18:16;;;;;;;4.53;1.20;;;11.30;99.90;;;;;;4973902;28;20193;-73
2022/02/23 16:20:41;;;;;;;3.83;0.90;;;11.20;99.90;;;;;;4972944;28;20185;-73
2022/02/23 16:23:07;;;;;;;3.13;0.90;;;11.20;99.90;;;;;;4973886;28;20259;-72
2022/02/23 16:25:39;;;;;;;4.30;1.00;;;11.20;99.90;;;;;;4974337;28;20183;-73
2022/02/23 16:28:05;;;;;;;3.63;1.30;;;11.10;99.90;;;;;;4974179;28;20177;-73
2022/02/23 16:30:31;;;;;;;8.40;1.50;;;11.10;99.90;;;;;;4974105;28;20474;-73
2022/02/23 16:32:57;;;;;;;6.07;1.27;;;11.10;99.90;;;;;;4973638;28;20971;-72
2022/02/23 16:35:25;;;;;;;3.00;1.20;;;11.00;99.90;;;;;;4974042;28;20218;-73
2022/02/23 16:37:50;;;;;;;5.23;1.40;;;10.90;99.90;;;;;;4974076;28;20206;-73
2022/02/23 16:40:16;;;;;;;6.33;1.40;;;10.90;99.90;;;;;;4973833;28;20824;-73
2022/02/23 16:42:41;;;;;;;18.23;4.77;;;10.80;99.90;;;;;;4974100;28;20306;-73
2022/02/23 16:45:07;;;;;;;5.33;1.83;;;10.70;99.90;;;;;;4973510;28;20191;-73
2022/02/23 16:47:36;;;;;;;6.00;1.47;;;10.60;99.90;;;;;;4974036;28;20533;-73
2022/02/23 16:50:03;;;;;;;4.20;1.00;;;10.50;99.90;;;;;;4973333;28;20501;-73
2022/02/23 16:52:28;;;;;;;3.70;1.60;;;10.40;99.90;;;;;;4971842;28;20454;-74
2022/02/23 16:54:56;;;;;;;5.77;1.80;;;10.40;99.90;;;;;;4973456;28;20470;-73
2022/02/23 16:57:22;;;;;;;5.53;1.40;;;10.20;99.90;;;;;;4973549;28;20175;-73
2022/02/23 16:59:48;;;;;;;3.80;1.97;;;10.10;99.90;;;;;;4973656;28;20728;-73
2022/02/23 17:02:14;;;;;;;4.27;1.87;;;9.90;99.90;;;;;;4972113;28;20570;-73
2022/02/23 17:04:39;;;;;;;5.77;1.63;;;9.80;99.90;;;;;;4973248;28;20680;-73
2022/02/23 17:07:05;;;;;;;7.40;2.60;;;9.70;99.90;;;;;;4973417;28;20209;-74
2022/02/23 17:09:30;;;;;;;6.17;2.67;;;9.40;99.90;;;;;;4973314;28;20181;-73
2022/02/23 17:11:56;;;;;;;5.10;2.00;;;9.30;99.90;;;;;;4973261;28;20207;-73
2022/02/23 17:14:21;;;;;;;5.40;2.20;;;9.10;99.90;;;;;;4972913;28;20208;-73
2022/02/23 17:16:48;;;;;;;4.17;1.77;;;8.90;99.90;;;;;;4972855;28;20655;-74
2022/02/23 17:19:13;;;;;;;3.60;1.43;;;8.80;99.90;;;;;;4973503;28;20530;-74
2022/02/23 17:21:39;;;;;;;14.53;1.70;;;8.70;99.90;;;;;;4973467;28;20488;-74
2022/02/23 17:24:04;;;;;;;7.50;1.20;;;8.50;99.90;;;;;;4973388;28;20197;-72